createdAt,value
2022-08-22T00:02:10.684Z,5.47
2022-08-22T00:02:41.977Z,10.68
2022-08-22T00:03:02.937Z,11.38
2022-08-22T00:03:08.441Z,6.55
2022-08-22T00:04:54.340Z,8.98
2022-08-22T00:07:36.959Z,8.45
2022-08-22T00:10:23.595Z,12.70
2022-08-22T00:13:07.214Z,8.35
2022-08-22T00:15:43.567Z,9.25
2022-08-22T00:18:15.884Z,8.80
2022-08-22T00:20:46.766Z,9.57
2022-08-22T00:23:25.525Z,8.90
2022-08-22T00:25:57.895Z,10.30
2022-08-22T00:29:04.170Z,6.57
2022-08-22T00:31:51.911Z,11.50
2022-08-22T00:34:24.727Z,9.18
2022-08-22T00:36:58.031Z,5.72
2022-08-22T00:39:55.369Z,7.47
2022-08-22T00:42:40.483Z,7.75
2022-08-22T00:45:26.523Z,15.45
2022-08-22T00:48:08.373Z,7.80
2022-08-22T00:51:00.590Z,7.70
2022-08-22T00:53:44.830Z,11.90
2022-08-22T00:56:47.278Z,8.05
2022-08-22T00:59:32.914Z,11.02
2022-08-22T01:02:18.914Z,8.07
2022-08-22T01:05:14.987Z,7.43
2022-08-22T01:08:01.134Z,9.75
2022-08-22T01:10:57.212Z,11.40
2022-08-22T01:13:47.671Z,7.68
2022-08-22T01:16:35.891Z,7.13
2022-08-22T01:19:08.784Z,9.32
2022-08-22T01:21:54.239Z,7.38
2022-08-22T01:25:07.774Z,11.27
2022-08-22T01:27:44.546Z,8.38
2022-08-22T01:30:39.767Z,11.38
2022-08-22T01:33:28.299Z,9.23
2022-08-22T01:36:07.551Z,9.55
2022-08-22T01:38:44.572Z,7.35
2022-08-22T01:41:23.840Z,6.63
2022-08-22T01:44:03.357Z,7.72
2022-08-22T01:46:33.498Z,11.30
2022-08-22T01:49:13.549Z,9.30
2022-08-22T01:52:02.658Z,7.93
2022-08-22T01:54:54.054Z,8.63
2022-08-22T01:57:24.510Z,8.98
2022-08-22T01:59:54.487Z,6.90
2022-08-22T02:02:36.835Z,7.53
2022-08-22T02:05:22.270Z,9.93
2022-08-22T02:08:03.870Z,7.57
2022-08-22T02:11:01.883Z,9.02
2022-08-22T02:13:57.499Z,8.65
2022-08-22T02:19:10.188Z,7.60
2022-08-22T02:21:50.373Z,6.55
2022-08-22T02:24:40.642Z,6.80
2022-08-22T02:27:27.124Z,7.38
2022-08-22T02:29:59.094Z,7.25
2022-08-22T02:32:42.044Z,12.27
2022-08-22T02:35:26.839Z,7.15
2022-08-22T02:38:03.171Z,8.13
2022-08-22T02:40:59.539Z,7.10
2022-08-22T02:43:37.735Z,7.45
2022-08-22T02:46:30.387Z,7.63
2022-08-22T02:49:20.239Z,8.13
2022-08-22T02:52:02.331Z,12.90
2022-08-22T02:54:56.586Z,7.53
2022-08-22T02:58:13.052Z,9.23
2022-08-22T03:01:09.615Z,10.98
2022-08-22T03:03:41.703Z,7.18
2022-08-22T03:06:32.595Z,8.60
2022-08-22T03:09:33.428Z,7.28
2022-08-22T03:12:09.291Z,9.13
2022-08-22T03:15:06.990Z,8.82
2022-08-22T03:17:39.162Z,8.70
2022-08-22T03:20:22.327Z,14.32
2022-08-22T03:23:00.435Z,9.75
2022-08-22T03:25:36.635Z,10.15
2022-08-22T03:28:13.575Z,7.28
2022-08-22T03:30:43.652Z,9.23
2022-08-22T03:33:20.999Z,8.50
2022-08-22T03:35:49.163Z,18.35
2022-08-22T03:38:33.062Z,9.20
2022-08-22T03:41:12.575Z,9.95
2022-08-22T03:43:57.799Z,9.43
2022-08-22T03:49:48.263Z,6.65
2022-08-22T03:53:06.801Z,7.35
2022-08-22T03:56:04.081Z,11.43
2022-08-22T03:58:39.742Z,8.57
2022-08-22T04:01:28.433Z,11.40
2022-08-22T04:04:10.733Z,9.15
2022-08-22T04:07:19.698Z,10.63
2022-08-22T04:10:33.560Z,11.50
2022-08-22T04:13:25.644Z,11.48
2022-08-22T04:15:58.700Z,10.30
2022-08-22T04:18:37.885Z,9.65
2022-08-22T04:21:27.166Z,8.88
2022-08-22T04:24:12.279Z,9.75
2022-08-22T04:26:53.141Z,11.20
2022-08-22T04:29:40.779Z,12.52
2022-08-22T04:32:20.218Z,7.35
2022-08-22T04:34:53.107Z,11.93
2022-08-22T04:37:36.403Z,10.20
2022-08-22T04:40:20.051Z,9.38
2022-08-22T04:43:06.111Z,10.82
2022-08-22T04:45:43.351Z,10.05
2022-08-22T04:48:22.562Z,10.27
2022-08-22T04:50:59.134Z,9.52
2022-08-22T04:53:38.356Z,7.95
2022-08-22T04:56:30.206Z,11.20
2022-08-22T04:58:59.448Z,10.65
2022-08-22T05:02:06.943Z,11.95
2022-08-22T05:04:43.360Z,9.85
2022-08-22T05:07:16.678Z,7.97
2022-08-22T05:09:59.079Z,8.70
2022-08-22T05:12:31.777Z,7.03
2022-08-22T05:15:03.107Z,8.93
2022-08-22T05:17:30.350Z,9.13
2022-08-22T05:20:04.827Z,8.35
2022-08-22T05:22:35.045Z,8.80
2022-08-22T05:25:10.927Z,8.35
2022-08-22T05:27:46.679Z,8.75
2022-08-22T05:30:23.824Z,8.48
2022-08-22T05:32:52.996Z,8.57
2022-08-22T05:35:29.611Z,10.38
2022-08-22T05:37:57.079Z,12.15
2022-08-22T05:40:27.908Z,10.00
2022-08-22T05:42:55.499Z,11.32
2022-08-22T05:45:22.904Z,9.60
2022-08-22T05:48:09.932Z,9.50
2022-08-22T05:50:43.162Z,10.35
2022-08-22T05:53:25.426Z,11.48
2022-08-22T05:56:19.175Z,10.95
2022-08-22T05:58:49.880Z,11.93
2022-08-22T06:01:26.113Z,6.85
2022-08-22T06:04:25.682Z,9.88
2022-08-22T06:06:56.840Z,10.27
2022-08-22T06:09:27.063Z,9.50
2022-08-22T06:12:06.262Z,12.05
2022-08-22T06:14:38.563Z,10.82
2022-08-22T06:17:10.862Z,10.80
2022-08-22T06:19:40.712Z,9.27
2022-08-22T06:22:07.986Z,8.13
2022-08-22T06:24:36.664Z,10.70
2022-08-22T06:27:11.956Z,11.68
2022-08-22T06:29:45.514Z,10.10
2022-08-22T06:32:30.608Z,10.07
2022-08-22T06:35:11.039Z,12.10
2022-08-22T06:37:42.707Z,12.48
2022-08-22T06:40:10.880Z,11.98
2022-08-22T06:42:43.134Z,15.77
2022-08-22T06:45:18.862Z,11.15
2022-08-22T06:47:53.536Z,18.20
2022-08-22T06:53:05.339Z,13.40
2022-08-22T06:55:32.587Z,13.52
2022-08-22T06:58:05.283Z,24.58
2022-08-22T07:00:35.535Z,12.45
2022-08-22T07:03:16.640Z,18.83
2022-08-22T07:05:44.027Z,14.63
2022-08-22T07:08:15.270Z,11.57
2022-08-22T07:10:43.944Z,15.93
2022-08-22T07:13:15.866Z,9.88
2022-08-22T07:15:43.258Z,10.77
2022-08-22T07:18:18.845Z,11.10
2022-08-22T07:20:57.094Z,15.73
2022-08-22T07:23:40.516Z,11.35
2022-08-22T07:26:19.703Z,9.32
2022-08-22T07:28:58.438Z,12.10
2022-08-22T07:31:33.616Z,19.27
2022-08-22T07:36:58.171Z,14.47
2022-08-22T07:39:50.222Z,17.25
2022-08-22T07:42:56.967Z,13.50
2022-08-22T07:45:33.929Z,12.82
2022-08-22T07:48:26.415Z,19.17
2022-08-22T07:51:12.277Z,14.13
2022-08-22T07:53:48.663Z,12.23
2022-08-22T07:56:27.134Z,13.52
2022-08-22T07:59:00.466Z,11.52
2022-08-22T08:01:29.185Z,15.80
2022-08-22T08:04:02.162Z,15.20
2022-08-22T08:06:29.385Z,14.45
2022-08-22T08:08:56.612Z,12.63
2022-08-22T08:11:25.890Z,8.63
2022-08-22T08:13:54.967Z,9.57
2022-08-22T08:16:24.463Z,6.28
2022-08-22T08:18:53.311Z,10.23
2022-08-22T08:21:33.418Z,8.20
2022-08-22T08:24:00.999Z,11.85
2022-08-22T08:26:38.988Z,9.13
2022-08-22T08:29:07.192Z,7.03
2022-08-22T08:31:43.386Z,9.48
2022-08-22T08:34:24.410Z,7.47
2022-08-22T08:37:08.126Z,4.45
2022-08-22T08:39:48.408Z,7.63
2022-08-22T08:42:57.547Z,7.45
2022-08-22T08:45:48.370Z,5.20
2022-08-22T08:48:20.920Z,8.10
2022-08-22T08:51:08.007Z,12.40
2022-08-22T08:54:21.738Z,7.40
2022-08-22T08:56:55.860Z,10.75
2022-08-22T09:00:01.762Z,6.10
2022-08-22T09:05:49.251Z,7.45
2022-08-22T09:08:29.049Z,10.75
2022-08-22T09:11:27.090Z,6.97
2022-08-22T09:14:27.006Z,7.45
2022-08-22T09:17:19.813Z,11.57
2022-08-22T09:20:17.893Z,8.15
2022-08-22T09:23:16.776Z,7.95
2022-08-22T09:26:05.707Z,6.68
2022-08-22T09:28:53.775Z,7.47
2022-08-22T09:31:33.083Z,4.45
2022-08-22T09:34:31.287Z,9.60
2022-08-22T09:37:19.902Z,7.03
2022-08-22T09:39:57.312Z,7.53
2022-08-22T09:42:29.794Z,10.05
2022-08-22T09:45:20.539Z,8.65
2022-08-22T09:48:39.265Z,8.50
2022-08-22T09:51:32.702Z,7.93
2022-08-22T09:54:35.758Z,9.55
2022-08-22T09:57:16.668Z,4.53
2022-08-22T10:00:06.327Z,5.10
2022-08-22T10:02:37.303Z,9.55
2022-08-22T10:05:41.062Z,6.30
2022-08-22T10:08:14.609Z,5.30
2022-08-22T10:11:18.942Z,5.45
2022-08-22T10:13:57.653Z,5.80
2022-08-22T10:16:57.532Z,9.52
2022-08-22T10:19:30.567Z,6.93
2022-08-22T10:22:15.944Z,6.88
2022-08-22T10:24:58.631Z,4.60
2022-08-22T10:28:08.578Z,6.90
2022-08-22T10:30:54.506Z,7.00
2022-08-22T10:33:59.135Z,8.30
2022-08-22T10:36:49.655Z,5.85
2022-08-22T10:39:22.611Z,4.97
2022-08-22T10:41:55.810Z,7.07
2022-08-22T10:44:36.784Z,5.28
2022-08-22T10:47:13.694Z,9.40
2022-08-22T10:49:51.499Z,6.68
2022-08-22T10:52:21.537Z,7.93
2022-08-22T10:54:56.455Z,7.00
2022-08-22T10:57:42.834Z,5.78
2022-08-22T11:00:46.375Z,7.30
2022-08-22T11:03:34.192Z,5.97
2022-08-22T11:06:04.191Z,7.53
2022-08-22T11:08:56.352Z,3.15
2022-08-22T11:11:33.048Z,7.28
2022-08-22T11:14:06.795Z,3.80
2022-08-22T11:16:42.221Z,6.55
2022-08-22T11:19:52.046Z,8.30
2022-08-22T11:22:57.058Z,3.92
2022-08-22T11:25:46.379Z,9.93
2022-08-22T11:28:34.698Z,5.75
2022-08-22T11:31:25.351Z,7.38
2022-08-22T11:33:58.148Z,4.00
2022-08-22T11:36:42.230Z,4.90
2022-08-22T11:39:18.442Z,6.07
2022-08-22T11:41:57.778Z,5.82
2022-08-22T11:44:55.563Z,8.43
2022-08-22T11:47:26.808Z,4.82
2022-08-22T11:50:35.246Z,7.85
2022-08-22T11:53:08.511Z,4.40
2022-08-22T11:55:37.919Z,8.88
2022-08-22T11:58:28.827Z,6.28
2022-08-22T12:01:05.066Z,4.07
2022-08-22T12:03:40.431Z,4.53
2022-08-22T12:06:38.616Z,4.20
2022-08-22T12:09:08.879Z,3.60
2022-08-22T12:12:04.724Z,2.42
2022-08-22T12:14:47.437Z,7.57
2022-08-22T12:17:55.202Z,5.70
2022-08-22T12:20:52.971Z,5.07
2022-08-22T12:23:43.661Z,3.67
2022-08-22T12:26:37.711Z,2.60
2022-08-22T12:29:33.633Z,5.63
2022-08-22T12:32:27.520Z,3.60
2022-08-22T12:35:19.813Z,3.90
2022-08-22T12:38:37.957Z,5.38
2022-08-22T12:41:40.634Z,6.68
2022-08-22T12:44:36.698Z,6.78
2022-08-22T12:47:25.139Z,4.75
2022-08-22T12:50:13.045Z,3.83
2022-08-22T12:52:44.327Z,4.25
2022-08-22T12:55:11.702Z,2.60
2022-08-22T12:57:57.416Z,5.32
2022-08-22T13:00:45.223Z,3.28
2022-08-22T13:03:24.034Z,3.50
2022-08-22T13:05:59.114Z,7.13
2022-08-22T13:08:37.104Z,3.10
2022-08-22T13:11:22.627Z,5.43
2022-08-22T13:13:59.099Z,2.40
2022-08-22T13:16:36.366Z,3.05
2022-08-22T13:19:22.227Z,2.42
2022-08-22T13:22:07.778Z,5.00
2022-08-22T13:24:54.957Z,4.15
2022-08-22T13:27:51.279Z,4.20
2022-08-22T13:30:26.153Z,3.83
2022-08-22T13:32:55.956Z,3.58
2022-08-22T13:35:27.188Z,2.78
2022-08-22T13:38:03.156Z,5.07
2022-08-22T13:40:31.590Z,1.30
2022-08-22T13:43:11.070Z,6.38
2022-08-22T13:45:39.324Z,4.55
2022-08-22T13:48:11.731Z,4.47
2022-08-22T13:50:56.968Z,3.55
2022-08-22T13:53:36.539Z,4.28
2022-08-22T13:56:15.753Z,4.43
2022-08-22T13:59:00.395Z,3.15
2022-08-22T14:01:48.854Z,5.97
2022-08-22T14:04:32.254Z,3.70
2022-08-22T14:07:05.982Z,6.53
2022-08-22T14:09:42.152Z,3.78
2022-08-22T14:12:32.343Z,4.25
2022-08-22T14:15:02.725Z,4.35
2022-08-22T14:17:42.857Z,6.78
2022-08-22T14:20:10.977Z,4.90
2022-08-22T14:22:40.018Z,5.72
2022-08-22T14:25:19.078Z,4.80
2022-08-22T14:27:52.474Z,3.75
2022-08-22T14:30:28.374Z,5.20
2022-08-22T14:33:16.361Z,4.75
2022-08-22T14:35:55.366Z,4.68
2022-08-22T14:38:35.142Z,3.22
2022-08-22T14:41:15.099Z,7.55
2022-08-22T14:43:50.428Z,3.70
2022-08-22T14:46:43.627Z,7.32
2022-08-22T14:49:29.150Z,5.90
2022-08-22T14:52:10.308Z,6.95
2022-08-22T14:54:46.932Z,5.40
2022-08-22T14:57:20.537Z,7.38
2022-08-22T14:59:50.497Z,3.40
2022-08-22T15:02:23.391Z,5.18
2022-08-22T15:04:52.479Z,5.40
2022-08-22T15:07:28.627Z,3.47
2022-08-22T15:10:31.685Z,3.90
2022-08-22T15:13:07.784Z,3.47
2022-08-22T15:15:53.548Z,1.75
2022-08-22T15:18:29.310Z,4.55
2022-08-22T15:21:08.919Z,5.55
2022-08-22T15:23:45.136Z,4.50
2022-08-22T15:26:30.640Z,3.15
2022-08-22T15:29:25.096Z,4.37
2022-08-22T15:31:57.284Z,6.55
2022-08-22T15:34:36.307Z,7.43
2022-08-22T15:37:18.599Z,3.33
2022-08-22T15:40:08.156Z,4.82
2022-08-22T15:42:57.200Z,5.25
2022-08-22T15:45:36.285Z,3.97
2022-08-22T15:48:09.018Z,2.78
2022-08-22T15:50:55.724Z,4.57
2022-08-22T15:53:33.567Z,12.48
2022-08-22T15:56:10.162Z,3.92
2022-08-22T15:58:48.170Z,6.55
2022-08-22T16:01:22.181Z,5.80
2022-08-22T16:04:02.183Z,3.13
2022-08-22T16:06:44.490Z,4.43
2022-08-22T16:09:42.623Z,5.65
2022-08-22T16:12:12.486Z,4.20
2022-08-22T16:14:42.838Z,4.07
2022-08-22T16:17:25.167Z,4.65
2022-08-22T16:20:19.800Z,3.97
2022-08-22T16:22:56.591Z,9.15
2022-08-22T16:25:45.707Z,6.05
2022-08-22T16:28:56.373Z,4.50
2022-08-22T16:31:27.385Z,6.32
2022-08-22T16:34:18.036Z,4.55
2022-08-22T16:37:03.500Z,5.00
2022-08-22T16:39:34.548Z,3.95
2022-08-22T16:42:14.334Z,6.05
2022-08-22T16:45:05.111Z,3.33
2022-08-22T16:47:32.755Z,4.68
2022-08-22T16:50:23.980Z,3.70
2022-08-22T16:53:06.220Z,3.42
2022-08-22T16:55:36.207Z,4.18
2022-08-22T16:58:21.796Z,3.80
2022-08-22T17:01:12.563Z,4.95
2022-08-22T17:04:00.085Z,2.55
2022-08-22T17:06:59.728Z,4.15
2022-08-22T17:09:47.996Z,3.22
2022-08-22T17:12:43.110Z,3.03
2022-08-22T17:15:28.475Z,2.40
2022-08-22T17:18:20.620Z,3.50
2022-08-22T17:20:47.853Z,2.10
2022-08-22T17:23:36.611Z,3.05
2022-08-22T17:26:22.214Z,2.47
2022-08-22T17:29:15.908Z,3.63
2022-08-22T17:32:10.678Z,3.45
2022-08-22T17:34:49.822Z,2.70
2022-08-22T17:37:26.264Z,5.47
2022-08-22T17:40:15.547Z,1.52
2022-08-22T17:42:51.463Z,2.75
2022-08-22T17:45:56.512Z,6.65
2022-08-22T17:48:42.805Z,2.47
2022-08-22T17:51:26.518Z,2.50
2022-08-22T17:54:04.571Z,2.60
2022-08-22T17:56:45.198Z,5.80
2022-08-22T17:59:20.316Z,2.10
2022-08-22T18:01:55.835Z,1.80
2022-08-22T18:04:33.319Z,3.80
2022-08-22T18:07:21.978Z,2.85
2022-08-22T18:10:14.262Z,3.72
2022-08-22T18:12:48.254Z,3.60
2022-08-22T18:15:20.619Z,2.63
2022-08-22T18:17:54.015Z,2.92
2022-08-22T18:20:25.608Z,2.25
2022-08-22T18:22:54.586Z,3.17
2022-08-22T18:25:22.181Z,4.40
2022-08-22T18:27:56.143Z,4.78
2022-08-22T18:30:31.388Z,3.33
2022-08-22T18:33:11.674Z,3.75
2022-08-22T18:35:43.614Z,2.10
2022-08-22T18:38:24.410Z,2.35
2022-08-22T18:40:58.918Z,4.18
2022-08-22T18:43:35.378Z,2.53
2022-08-22T18:46:04.919Z,5.53
2022-08-22T18:48:49.571Z,4.03
2022-08-22T18:51:27.460Z,3.17
2022-08-22T18:53:57.900Z,6.45
2022-08-22T18:56:31.010Z,4.43
2022-08-22T18:59:22.227Z,4.20
2022-08-22T19:02:14.443Z,5.80
2022-08-22T19:04:45.599Z,4.03
2022-08-22T19:07:40.887Z,6.55
2022-08-22T19:10:31.391Z,5.18
2022-08-22T19:12:58.798Z,3.78
2022-08-22T19:15:52.489Z,2.80
2022-08-22T19:18:44.690Z,3.95
2022-08-22T19:21:48.283Z,4.00
2022-08-22T19:24:27.731Z,6.18
2022-08-22T19:27:10.047Z,4.10
2022-08-22T19:29:37.256Z,3.90
2022-08-22T19:32:06.693Z,3.17
2022-08-22T19:34:41.959Z,3.13
2022-08-22T19:37:32.928Z,3.45
2022-08-22T19:40:07.414Z,3.47
2022-08-22T19:42:36.259Z,4.88
2022-08-22T19:45:16.865Z,4.38
2022-08-22T19:47:51.708Z,2.97
2022-08-22T19:53:00.455Z,4.57
2022-08-22T19:55:30.684Z,4.38
2022-08-22T19:58:32.771Z,2.08
2022-08-22T20:01:12.041Z,4.35
2022-08-22T20:03:44.538Z,4.78
2022-08-22T20:06:43.394Z,3.67
2022-08-22T20:09:16.754Z,4.32
2022-08-22T20:12:02.100Z,3.17
2022-08-22T20:14:31.351Z,5.30
2022-08-22T20:17:01.603Z,4.40
2022-08-22T20:22:39.475Z,6.03
2022-08-22T20:25:06.673Z,4.40
2022-08-22T20:27:46.684Z,2.70
2022-08-22T20:30:33.610Z,3.83
2022-08-22T20:33:46.667Z,2.95
2022-08-22T20:36:28.082Z,6.03
2022-08-22T20:39:00.252Z,2.60
2022-08-22T20:41:37.930Z,7.60
2022-08-22T20:44:05.313Z,3.67
2022-08-22T20:46:46.127Z,4.20
2022-08-22T20:49:18.791Z,4.00
2022-08-22T20:52:12.939Z,6.05
2022-08-22T20:54:40.672Z,2.92
2022-08-22T20:57:15.981Z,6.45
2022-08-22T20:59:58.947Z,3.17
2022-08-22T21:02:30.009Z,5.53
2022-08-22T21:05:18.468Z,4.30
2022-08-22T21:07:48.639Z,3.88
2022-08-22T21:10:45.651Z,8.38
2022-08-22T21:13:22.719Z,6.28
2022-08-22T21:15:58.782Z,2.70
2022-08-22T21:18:31.774Z,5.78
2022-08-22T21:21:18.020Z,3.88
2022-08-22T21:23:47.169Z,4.80
2022-08-22T21:26:26.308Z,6.03
2022-08-22T21:29:26.438Z,3.33
2022-08-22T21:32:04.705Z,4.38
2022-08-22T21:34:35.473Z,4.90
2022-08-22T21:37:08.525Z,5.15
2022-08-22T21:39:37.725Z,4.05
2022-08-22T21:42:07.985Z,5.40
2022-08-22T21:44:36.780Z,4.35
2022-08-22T21:47:30.475Z,3.53
2022-08-22T21:50:24.359Z,3.63
2022-08-22T21:52:54.319Z,3.63
2022-08-22T21:55:24.403Z,4.95
2022-08-22T21:58:37.263Z,5.38
2022-08-22T22:01:28.160Z,3.15
2022-08-22T22:03:56.494Z,4.20
2022-08-22T22:06:23.763Z,7.05
2022-08-22T22:08:51.082Z,7.30
2022-08-22T22:11:18.370Z,3.65
2022-08-22T22:13:45.639Z,4.60
2022-08-22T22:16:12.954Z,5.00
2022-08-22T22:18:40.542Z,3.92
2022-08-22T22:21:07.971Z,9.23
2022-08-22T22:23:35.185Z,5.75
2022-08-22T22:26:03.861Z,4.05
2022-08-22T22:28:36.496Z,7.60
2022-08-22T22:31:03.885Z,6.95
2022-08-22T22:33:33.694Z,7.35
2022-08-22T22:36:06.507Z,4.97
2022-08-22T22:38:33.803Z,7.22
2022-08-22T22:41:01.053Z,5.60
2022-08-22T22:43:28.316Z,5.80
2022-08-22T22:45:55.547Z,4.35
2022-08-22T22:48:24.873Z,5.03
2022-08-22T22:50:53.008Z,6.70
2022-08-22T22:53:21.369Z,4.78
2022-08-22T22:58:35.065Z,6.57
2022-08-22T23:01:17.599Z,8.73
2022-08-22T23:03:44.982Z,7.75
2022-08-22T23:06:13.607Z,5.85
2022-08-22T23:08:40.961Z,5.65
2022-08-22T23:11:14.930Z,5.30
2022-08-22T23:13:43.109Z,7.10
2022-08-22T23:16:13.464Z,4.22
2022-08-22T23:18:41.247Z,6.18
2022-08-22T23:21:16.476Z,5.38
2022-08-22T23:23:43.735Z,5.38
2022-08-22T23:26:11.292Z,5.25
2022-08-22T23:28:38.926Z,5.20
2022-08-22T23:31:17.159Z,4.57
2022-08-22T23:33:44.939Z,6.03
2022-08-22T23:36:13.630Z,6.75
2022-08-22T23:38:40.947Z,8.00
2022-08-22T23:41:09.913Z,8.27
2022-08-22T23:43:40.495Z,5.85
2022-08-22T23:46:07.711Z,5.07
2022-08-22T23:48:34.946Z,7.53
2022-08-22T23:51:02.175Z,5.78
2022-08-22T23:53:29.483Z,5.57
2022-08-22T23:55:56.830Z,6.65
2022-08-22T23:58:24.059Z,4.40
